| time (UTC) | temp F | wind direction | speed MPH | gust MPH | rain 1hr in | rain 24hr in | rain mn in | humidity % | barometer mb |
| 20260904131507 | 43 | 147 | 0.0 | 1.0 | 0.00 | 0.02 | 0.01 | 91 | 1006.0 |
| 20260904130004 | 43 | 147 | 0.0 | 1.0 | 0.00 | 0.03 | 0.01 | 91 | 1005.5 |
| 20260904124503 | 43 | 147 | 0.0 | 2.0 | 0.00 | 0.03 | 0.01 | 90 | 1005.5 |
| 20260904123002 | 43 | 147 | 0.0 | 1.0 | 0.00 | 0.03 | 0.01 | 89 | 1005.4 |
| 20260904121502 | 43 | 103 | 0.0 | 3.0 | 0.00 | 0.03 | 0.01 | 88 | 1005.3 |
| 20260904120110 | 43 | 80 | 1.0 | 2.0 | 0.00 | 0.03 | 0.01 | 89 | 1005.2 |
| 20260904114559 | 43 | 67 | 1.0 | 2.0 | 0.00 | 0.03 | 0.01 | 90 | 1004.9 |
| 20260904113058 | 44 | 329 | 0.0 | 0.0 | 0.01 | 0.03 | 0.01 | 90 | 1005.4 |
| 20260904111554 | 44 | 329 | 0.0 | 2.0 | 0.01 | 0.03 | 0.01 | 89 | 1005.3 |
| 20260904110051 | 45 | 326 | 1.0 | 2.0 | 0.01 | 0.03 | 0.01 | 87 | 1005.1 |
| 20260904104547 | 46 | 320 | 1.0 | 3.0 | 0.01 | 0.03 | 0.01 | 83 | 1004.6 |
| 20260904103042 | 48 | 248 | 1.0 | 5.0 | 0.00 | 0.02 | 0.00 | 77 | 1004.4 |
| 20260904101539 | 50 | 248 | 0.0 | 7.0 | 0.00 | 0.02 | 0.00 | 70 | 1003.8 |
| 20260904100037 | 51 | 241 | 0.0 | 4.0 | 0.00 | 0.02 | 0.00 | 66 | 1003.3 |
| 20260904094540 | 52 | 194 | 0.0 | 6.0 | 0.00 | 0.02 | 0.00 | 64 | 1003.0 |
| 20260904093029 | 53 | 241 | 0.0 | 2.0 | 0.00 | 0.02 | 0.00 | 62 | 1002.8 |
| 20260904091534 | 52 | 170 | 1.0 | 3.0 | 0.00 | 0.02 | 0.00 | 60 | 1002.6 |
| 20260904090026 | 53 | 149 | 0.0 | 0.0 | 0.00 | 0.02 | 0.00 | 57 | 1002.4 |
| 20260904084524 | 53 | 149 | 0.0 | 1.0 | 0.00 | 0.02 | 0.00 | 56 | 1002.0 |
| 20260904083023 | 54 | 149 | 0.0 | 2.0 | 0.00 | 0.02 | 0.00 | 55 | 1001.9 |
| 20260904081523 | 54 | 144 | 0.0 | 3.0 | 0.00 | 0.02 | 0.00 | 54 | 1001.8 |
| 20260904080020 | 54 | 135 | 0.0 | 2.0 | 0.00 | 0.02 | 0.00 | 54 | 1001.9 |
| 20260904074519 | 53 | 136 | 0.0 | 1.0 | 0.00 | 0.02 | 0.00 | 55 | 1001.9 |
| 20260904073019 | 54 | 149 | 0.0 | 2.0 | 0.00 | 0.02 | 0.00 | 55 | 1002.0 |
| 20260904071518 | 54 | 140 | 2.0 | 8.0 | 0.00 | 0.02 | 0.00 | 54 | 1002.2 |
| 20260904070017 | 54 | 145 | 2.0 | 7.0 | 0.00 | 0.02 | 0.00 | 53 | 1002.4 |
| 20260904064522 | 54 | 146 | 1.0 | 8.0 | 0.00 | 0.02 | 0.00 | 54 | 1002.6 |
| 20260904063024 | 53 | 91 | 1.0 | 2.0 | 0.00 | 0.02 | 0.00 | 54 | 1002.6 |
| 20260904061514 | 53 | 98 | 0.0 | 2.0 | 0.00 | 0.02 | 0.00 | 55 | 1002.6 |
| 20260904060010 | 54 | 145 | 0.0 | 2.0 | 0.00 | 0.02 | 0.00 | 55 | 1003.1 |
| 20260904054509 | 54 | 145 | 0.0 | 4.0 | 0.00 | 0.02 | 0.02 | 54 | 1003.3 |
| 20260904053008 | 55 | 132 | 2.0 | 10.0 | 0.00 | 0.02 | 0.02 | 53 | 1003.5 |
| 20260904051505 | 55 | 165 | 2.0 | 8.0 | 0.00 | 0.02 | 0.02 | 52 | 1003.7 |
| 20260904050003 | 55 | 157 | 4.0 | 13.0 | 0.00 | 0.02 | 0.02 | 51 | 1003.9 |
| 20260904044507 | 55 | 125 | 1.0 | 6.0 | 0.00 | 0.02 | 0.02 | 51 | 1004.0 |
| 20260904043006 | 56 | 154 | 5.0 | 11.0 | 0.00 | 0.02 | 0.02 | 49 | 1004.1 |
| 20260904041502 | 56 | 119 | 4.0 | 13.0 | 0.00 | 0.02 | 0.02 | 49 | 1004.2 |
| 20260904040002 | 56 | 134 | 0.0 | 2.0 | 0.00 | 0.02 | 0.02 | 50 | 1004.0 |
| 20260904034501 | 56 | 102 | 0.0 | 5.0 | 0.00 | 0.02 | 0.02 | 50 | 1003.8 |
| 20260904033101 | 56 | 88 | 1.0 | 3.0 | 0.00 | 0.02 | 0.02 | 50 | 1003.9 |
| 20260904031603 | 55 | 105 | 1.0 | 2.0 | 0.00 | 0.02 | 0.02 | 51 | 1004.1 |
| 20260904030058 | 55 | 136 | 0.0 | 4.0 | 0.00 | 0.02 | 0.02 | 52 | 1004.3 |
| 20260904024606 | 55 | 140 | 0.0 | 1.0 | 0.00 | 0.02 | 0.02 | 52 | 1004.2 |
| 20260904023058 | 56 | 140 | 0.0 | 7.0 | 0.00 | 0.02 | 0.02 | 52 | 1004.3 |
| 20260904021558 | 56 | 142 | 0.0 | 7.0 | 0.00 | 0.02 | 0.02 | 52 | 1004.2 |
| 20260904020056 | 56 | 129 | 0.0 | 5.0 | 0.00 | 0.02 | 0.02 | 51 | 1004.4 |
| 20260904014556 | 56 | 139 | 2.0 | 5.0 | 0.00 | 0.02 | 0.02 | 51 | 1004.4 |
| 20260904013113 | 56 | 144 | 2.0 | 6.0 | 0.00 | 0.02 | 0.02 | 51 | 1004.5 |
| 20260904011552 | 57 | 128 | 1.0 | 8.0 | 0.00 | 0.02 | 0.02 | 50 | 1004.7 |
| 20260904010050 | 57 | 113 | 3.0 | 12.0 | 0.00 | 0.02 | 0.02 | 50 | 1005.0 |
| 20260904004549 | 57 | 130 | 5.0 | 11.0 | 0.00 | 0.02 | 0.02 | 50 | 1005.0 |
| 20260904003048 | 58 | 136 | 6.0 | 15.0 | 0.00 | 0.02 | 0.02 | 49 | 1005.0 |
| 20260904001604 | 58 | 153 | 5.0 | 14.0 | 0.00 | 0.02 | 0.02 | 50 | 1005.1 |
| 20260904000046 | 58 | 136 | 7.0 | 17.0 | 0.00 | 0.02 | 0.02 | 51 | 1005.3 |
| 20260903234545 | 58 | 133 | 5.0 | 13.0 | 0.00 | 0.02 | 0.02 | 52 | 1005.5 |
| 20260903233046 | 58 | 153 | 8.0 | 16.0 | 0.00 | 0.02 | 0.02 | 49 | 1005.4 |
| 20260903231544 | 58 | 149 | 6.0 | 13.0 | 0.00 | 0.02 | 0.02 | 50 | 1005.4 |
| 20260903230042 | 58 | 114 | 7.0 | 15.0 | 0.00 | 0.02 | 0.02 | 52 | 1005.7 |
| 20260903224547 | 58 | 132 | 7.0 | 17.0 | 0.00 | 0.02 | 0.02 | 53 | 1005.8 |
| 20260903223043 | 58 | 171 | 6.0 | 16.0 | 0.00 | 0.02 | 0.02 | 53 | 1006.0 |
| 20260903221538 | 59 | 161 | 7.0 | 15.0 | 0.00 | 0.02 | 0.02 | 50 | 1006.2 |
| 20260903220036 | 59 | 131 | 6.0 | 14.0 | 0.00 | 0.02 | 0.02 | 50 | 1006.3 |
| 20260903214538 | 58 | 139 | 10.0 | 17.0 | 0.00 | 0.02 | 0.02 | 52 | 1006.5 |
| 20260903213046 | 58 | 128 | 8.0 | 18.0 | 0.00 | 0.02 | 0.02 | 54 | 1006.7 |
| 20260903211531 | 57 | 150 | 8.0 | 14.0 | 0.00 | 0.02 | 0.02 | 52 | 1007.0 |
| 20260903210029 | 57 | 136 | 5.0 | 14.0 | 0.00 | 0.02 | 0.02 | 55 | 1007.0 |
| 20260903204526 | 57 | 165 | 6.0 | 13.0 | 0.00 | 0.02 | 0.02 | 56 | 1007.0 |
| 20260903203024 | 56 | 122 | 8.0 | 15.0 | 0.00 | 0.02 | 0.02 | 57 | 1007.4 |
| 20260903201519 | 55 | 115 | 5.0 | 14.0 | 0.00 | 0.02 | 0.02 | 61 | 1007.5 |
| 20260903200018 | 54 | 153 | 8.0 | 13.0 | 0.00 | 0.02 | 0.02 | 60 | 1007.7 |
| 20260903194516 | 53 | 130 | 8.0 | 15.0 | 0.00 | 0.02 | 0.02 | 63 | 1007.8 |
| 20260903193018 | 53 | 145 | 8.0 | 15.0 | 0.00 | 0.02 | 0.02 | 64 | 1008.0 |
| 20260903191523 | 52 | 154 | 7.0 | 17.0 | 0.00 | 0.02 | 0.02 | 66 | 1007.9 |
| 20260903190015 | 52 | 147 | 9.0 | 15.0 | 0.00 | 0.02 | 0.02 | 66 | 1008.0 |
| 20260903184512 | 52 | 159 | 6.0 | 14.0 | 0.00 | 0.02 | 0.02 | 68 | 1007.9 |
| 20260903183020 | 51 | 156 | 8.0 | 15.0 | 0.00 | 0.02 | 0.02 | 68 | 1008.1 |
| 20260903181508 | 50 | 167 | 9.0 | 16.0 | 0.00 | 0.02 | 0.02 | 69 | 1008.3 |
| 20260903180010 | 50 | 156 | 10.0 | 18.0 | 0.00 | 0.02 | 0.02 | 70 | 1008.3 |
| 20260903174505 | 50 | 154 | 6.0 | 13.0 | 0.00 | 0.02 | 0.02 | 70 | 1008.3 |
| 20260903173003 | 50 | 148 | 5.0 | 14.0 | 0.00 | 0.02 | 0.02 | 72 | 1008.6 |
| 20260903171501 | 49 | 173 | 7.0 | 14.0 | 0.00 | 0.02 | 0.02 | 73 | 1008.7 |
| 20260903170059 | 48 | 175 | 4.0 | 15.0 | 0.00 | 0.02 | 0.02 | 74 | 1008.8 |
| 20260903164557 | 48 | 141 | 7.0 | 12.0 | 0.00 | 0.02 | 0.02 | 77 | 1009.0 |
| 20260903163126 | 47 | 152 | 6.0 | 12.0 | 0.00 | 0.02 | 0.02 | 80 | 1008.7 |
| 20260903161552 | 45 | 149 | 3.0 | 11.0 | 0.00 | 0.02 | 0.02 | 82 | 1008.8 |
| 20260903160051 | 45 | 167 | 3.0 | 11.0 | 0.00 | 0.02 | 0.02 | 81 | 1008.9 |
| 20260903154551 | 45 | 147 | 3.0 | 8.0 | 0.00 | 0.09 | 0.02 | 81 | 1008.8 |
| 20260903153050 | 45 | 178 | 4.0 | 11.0 | 0.00 | 0.09 | 0.02 | 81 | 1008.9 |
| 20260903151548 | 45 | 138 | 5.0 | 9.0 | 0.00 | 0.09 | 0.02 | 82 | 1009.0 |
| 20260903150048 | 44 | 150 | 4.0 | 12.0 | 0.00 | 0.09 | 0.02 | 81 | 1008.9 |
| 20260903144549 | 44 | 168 | 4.0 | 9.0 | 0.01 | 0.09 | 0.02 | 83 | 1008.9 |
| 20260903143046 | 43 | 143 | 2.0 | 5.0 | 0.01 | 0.09 | 0.02 | 86 | 1008.9 |
| 20260903141542 | 43 | 134 | 2.0 | 6.0 | 0.01 | 0.09 | 0.02 | 86 | 1008.8 |
| 20260903140041 | 43 | 139 | 0.0 | 7.0 | 0.01 | 0.09 | 0.02 | 86 | 1008.7 |
| 20260903134538 | 43 | 169 | 2.0 | 7.0 | 0.00 | 0.08 | 0.01 | 84 | 1008.8 |
| 20260903133040 | 43 | 142 | 2.0 | 8.0 | 0.00 | 0.08 | 0.01 | 83 | 1008.5 |